Time;durP1;ratioP1;P1;durP2;ratioP2;P2;SDS_P1;SDS_P2;PMS_P1;PMS_P2;Temp;Humidity;BMP_temperature;BMP_pressure;BME280_temperature;BME280_humidity;BME280_pressure;Samples;Min_cycle;Max_cycle;Signal;HPM_P1;HPM_P2
2024/03/17 00:00:30;;;;;;;;;;;;;;;;;;5046313;28;19927;-65
2024/03/17 00:02:56;;;;;;;;;;;;;;;;;;5056104;28;19925;-65
2024/03/17 00:05:22;;;;;;;;;;;;;;;;;;5049209;28;20016;-65
2024/03/17 00:07:48;;;;;;;;;;;;;;;;;;5050981;28;20330;-65
2024/03/17 00:10:15;;;;;;;;;;;;;;;;;;5040224;28;20860;-65
2024/03/17 00:12:41;;;;;;;;;;;;;;;;;;5046393;28;19924;-65
2024/03/17 00:15:07;;;;;;;;;;;;;;;;;;5053794;28;19932;-66
2024/03/17 00:17:33;;;;;;;;;;;;;;;;;;5048645;28;19925;-65
2024/03/17 00:20:01;;;;;;;;;;;;;;;;;;5052693;28;19932;-65
2024/03/17 00:22:27;;;;;;;;;;;;;;;;;;5053292;28;19931;-66
2024/03/17 00:24:53;;;;;;;;;;;;;;;;;;5050318;28;19924;-65
2024/03/17 00:27:19;;;;;;;;;;;;;;;;;;5055672;28;20301;-65
2024/03/17 00:29:45;;;;;;;;;;;;;;;;;;5053717;28;20346;-65
2024/03/17 00:32:11;;;;;;;;;;;;;;;;;;5055340;28;20262;-65
2024/03/17 00:34:37;;;;;;;;;;;;;;;;;;5050510;28;19931;-66
2024/03/17 00:37:03;;;;;;;;;;;;;;;;;;5049771;28;20278;-65
2024/03/17 00:39:29;;;;;;;;;;;;;;;;;;5051742;28;19925;-65
2024/03/17 00:41:55;;;;;;;;;;;;;;;;;;5051396;28;19928;-65
2024/03/17 00:44:21;;;;;;;;;;;;;;;;;;5036817;28;19924;-65
2024/03/17 00:46:48;;;;;;;;;;;;;;;;;;5048904;28;20248;-65
2024/03/17 00:49:14;;;;;;;;;;;;;;;;;;5053199;28;19921;-66
2024/03/17 00:51:39;;;;;;;;;;;;;;;;;;5052008;28;19931;-65
2024/03/17 00:54:05;;;;;;;;;;;;;;;;;;5056391;28;19950;-65
2024/03/17 00:56:31;;;;;;;;;;;;;;;;;;5049206;28;20417;-65
2024/03/17 00:58:57;;;;;;;;;;;;;;;;;;5038190;28;20377;-65
2024/03/17 01:01:24;;;;;;;;;;;;;;;;;;5035523;28;19932;-65
2024/03/17 01:03:50;;;;;;;;;;;;;;;;;;5019187;28;19920;-65
2024/03/17 01:06:16;;;;;;;;;;;;;;;;;;5036396;28;19981;-65
2024/03/17 01:08:43;;;;;;;;;;;;;;;;;;5050666;28;20261;-65
2024/03/17 01:11:09;;;;;;;;;;;;;;;;;;5048307;28;19920;-66
2024/03/17 01:13:41;;;;;;;;;;;;;;;;;;5048586;28;20474;-65
2024/03/17 01:16:07;;;;;;;;;;;;;;;;;;5054526;28;20397;-65
2024/03/17 01:18:34;;;;;;;;;;;;;;;;;;5053642;28;20003;-65
2024/03/17 01:21:00;;;;;;;;;;;;;;;;;;5055359;28;20043;-65
2024/03/17 01:23:26;;;;;;;;;;;;;;;;;;5054582;28;20367;-65
2024/03/17 01:25:52;;;;;;;;;;;;;;;;;;5054019;28;20034;-65
2024/03/17 01:28:18;;;;;;;;;;;;;;;;;;5044494;28;19921;-65
2024/03/17 01:30:44;;;;;;;;;;;;;;;;;;5055373;28;19989;-65
2024/03/17 01:33:12;;;;;;;;;;;;;;;;;;5051878;28;20308;-65
2024/03/17 01:35:38;;;;;;;;;;;;;;;;;;5058937;28;20027;-65
2024/03/17 01:38:04;;;;;;;;;;;;;;;;;;5052930;28;19925;-64
2024/03/17 01:40:30;;;;;;;;;;;;;;;;;;5052992;28;20394;-64
2024/03/17 01:42:56;;;;;;;;;;;;;;;;;;5042179;28;20036;-65
2024/03/17 01:45:21;;;;;;;;;;;;;;;;;;5035263;28;20062;-65
2024/03/17 01:47:47;;;;;;;;;;;;;;;;;;5035413;28;19990;-65
2024/03/17 01:50:16;;;;;;;;;;;;;;;;;;5029247;28;20362;-65
2024/03/17 01:52:42;;;;;;;;;;;;;;;;;;5033775;28;19921;-65
2024/03/17 01:55:08;;;;;;;;;;;;;;;;;;5028254;28;19936;-65
2024/03/17 01:57:34;;;;;;;;;;;;;;;;;;5031365;28;20016;-65
2024/03/17 02:00:00;;;;;;;;;;;;;;;;;;5025582;28;19921;-65
2024/03/17 02:02:26;;;;;;;;;;;;;;;;;;5012925;28;19980;-65
2024/03/17 02:04:52;;;;;;;;;;;;;;;;;;5015627;28;20598;-65
2024/03/17 02:07:18;;;;;;;;;;;;;;;;;;5037154;28;19921;-65
2024/03/17 02:09:44;;;;;;;;;;;;;;;;;;5020289;28;20378;-65
2024/03/17 02:12:11;;;;;;;;;;;;;;;;;;5017896;28;19921;-65
2024/03/17 02:14:37;;;;;;;;;;;;;;;;;;5023686;28;20331;-65
2024/03/17 02:17:04;;;;;;;;;;;;;;;;;;5026596;28;19944;-65
2024/03/17 02:19:29;;;;;;;;;;;;;;;;;;5028113;28;19928;-65
2024/03/17 02:21:55;;;;;;;;;;;;;;;;;;5038046;28;19921;-65
2024/03/17 02:24:21;;;;;;;;;;;;;;;;;;5047206;28;19960;-65
2024/03/17 02:26:47;;;;;;;;;;;;;;;;;;5017392;28;20006;-65
2024/03/17 02:29:13;;;;;;;;;;;;;;;;;;5005665;28;19972;-66
2024/03/17 02:31:39;;;;;;;;;;;;;;;;;;5028916;28;20436;-66
2024/03/17 02:34:05;;;;;;;;;;;;;;;;;;5011326;28;20013;-66
2024/03/17 02:36:31;;;;;;;;;;;;;;;;;;5033974;28;19921;-66
2024/03/17 02:41:42;;;;;;;;;;;;;;;;;;5028359;28;20302;-66
2024/03/17 02:44:08;;;;;;;;;;;;;;;;;;5030308;28;19932;-66
2024/03/17 02:46:34;;;;;;;;;;;;;;;;;;5026459;28;19932;-66
2024/03/17 02:49:00;;;;;;;;;;;;;;;;;;5031474;28;19927;-66
2024/03/17 02:51:26;;;;;;;;;;;;;;;;;;5039526;28;19926;-66
2024/03/17 02:53:52;;;;;;;;;;;;;;;;;;5036738;28;19925;-65
2024/03/17 02:56:18;;;;;;;;;;;;;;;;;;5036665;28;20469;-65
2024/03/17 02:58:44;;;;;;;;;;;;;;;;;;5031167;28;19935;-65
2024/03/17 03:01:10;;;;;;;;;;;;;;;;;;5029243;28;19921;-66
2024/03/17 03:03:36;;;;;;;;;;;;;;;;;;5024741;28;19975;-66
2024/03/17 03:06:04;;;;;;;;;;;;;;;;;;5038319;28;19977;-66
2024/03/17 03:08:30;;;;;;;;;;;;;;;;;;5034918;28;20376;-66
2024/03/17 03:10:56;;;;;;;;;;;;;;;;;;5031518;28;19925;-66
2024/03/17 03:13:22;;;;;;;;;;;;;;;;;;5039298;28;19925;-65
2024/03/17 03:15:47;;;;;;;;;;;;;;;;;;5024757;28;19932;-65
2024/03/17 03:18:13;;;;;;;;;;;;;;;;;;5031949;28;20377;-65
2024/03/17 03:20:39;;;;;;;;;;;;;;;;;;5038779;28;19931;-65
2024/03/17 03:23:05;;;;;;;;;;;;;;;;;;5022313;28;20011;-65
2024/03/17 03:25:31;;;;;;;;;;;;;;;;;;5030603;28;19956;-65
2024/03/17 03:27:57;;;;;;;;;;;;;;;;;;5042259;28;19964;-65
2024/03/17 03:30:23;;;;;;;;;;;;;;;;;;5032149;28;19929;-64
2024/03/17 03:32:49;;;;;;;;;;;;;;;;;;5033153;28;19952;-65
2024/03/17 03:35:15;;;;;;;;;;;;;;;;;;5035806;28;19932;-65
2024/03/17 03:37:41;;;;;;;;;;;;;;;;;;5033849;28;20374;-65
2024/03/17 03:40:16;;;;;;;;;;;;;;;;;;5036231;28;19929;-65
2024/03/17 03:42:42;;;;;;;;;;;;;;;;;;5035339;28;19929;-65
2024/03/17 03:45:08;;;;;;;;;;;;;;;;;;5026772;28;19929;-65
2024/03/17 03:47:34;;;;;;;;;;;;;;;;;;5029786;28;19936;-65
2024/03/17 03:50:00;;;;;;;;;;;;;;;;;;5032388;28;19925;-65
2024/03/17 03:52:26;;;;;;;;;;;;;;;;;;5042029;28;19922;-66
2024/03/17 03:54:55;;;;;;;;;;;;;;;;;;5031306;28;19944;-65
2024/03/17 03:57:21;;;;;;;;;;;;;;;;;;5031550;28;20513;-65
2024/03/17 03:59:47;;;;;;;;;;;;;;;;;;5032494;28;19929;-65
2024/03/17 04:02:13;;;;;;;;;;;;;;;;;;5035055;28;19924;-65
2024/03/17 04:04:38;;;;;;;;;;;;;;;;;;5041780;28;19970;-65
2024/03/17 04:07:04;;;;;;;;;;;;;;;;;;5040633;28;20367;-66
2024/03/17 04:09:31;;;;;;;;;;;;;;;;;;5019021;28;19924;-66
2024/03/17 04:11:57;;;;;;;;;;;;;;;;;;5041109;28;19927;-65
2024/03/17 04:14:23;;;;;;;;;;;;;;;;;;5033558;28;20576;-65
2024/03/17 04:16:49;;;;;;;;;;;;;;;;;;5032158;28;19921;-64
2024/03/17 04:19:16;;;;;;;;;;;;;;;;;;5011389;28;20376;-65
2024/03/17 04:21:42;;;;;;;;;;;;;;;;;;5024578;28;20008;-65
2024/03/17 04:24:08;;;;;;;;;;;;;;;;;;5034607;28;20322;-65
2024/03/17 04:26:34;;;;;;;;;;;;;;;;;;5044842;28;20024;-65
2024/03/17 04:29:00;;;;;;;;;;;;;;;;;;5037842;28;19932;-65
2024/03/17 04:31:27;;;;;;;;;;;;;;;;;;5037527;28;20489;-64
2024/03/17 04:33:53;;;;;;;;;;;;;;;;;;5016237;28;20371;-64
2024/03/17 04:36:19;;;;;;;;;;;;;;;;;;5044727;28;19978;-64
2024/03/17 04:38:45;;;;;;;;;;;;;;;;;;5029181;28;19936;-64
2024/03/17 04:41:11;;;;;;;;;;;;;;;;;;5033856;28;19929;-65
2024/03/17 04:43:37;;;;;;;;;;;;;;;;;;5030931;28;20670;-65
2024/03/17 04:46:04;;;;;;;;;;;;;;;;;;5041657;28;19936;-65
2024/03/17 04:48:29;;;;;;;;;;;;;;;;;;5044797;28;19928;-65
2024/03/17 04:50:55;;;;;;;;;;;;;;;;;;5040232;28;20367;-65
2024/03/17 04:53:21;;;;;;;;;;;;;;;;;;5030925;28;19925;-65
2024/03/17 04:55:47;;;;;;;;;;;;;;;;;;5046294;28;19925;-65
2024/03/17 04:58:13;;;;;;;;;;;;;;;;;;5045613;28;20002;-65
2024/03/17 05:00:39;;;;;;;;;;;;;;;;;;5031531;28;19975;-65
2024/03/17 05:03:05;;;;;;;;;;;;;;;;;;5042313;28;19924;-65
2024/03/17 05:05:31;;;;;;;;;;;;;;;;;;5025560;28;20366;-65
2024/03/17 05:07:57;;;;;;;;;;;;;;;;;;5037543;28;19968;-65
2024/03/17 05:10:23;;;;;;;;;;;;;;;;;;5026523;28;19986;-65
2024/03/17 05:12:48;;;;;;;;;;;;;;;;;;5032240;28;19925;-65
2024/03/17 05:15:14;;;;;;;;;;;;;;;;;;5029741;28;20423;-65
2024/03/17 05:17:40;;;;;;;;;;;;;;;;;;5032205;28;19921;-65
2024/03/17 05:20:08;;;;;;;;;;;;;;;;;;5034469;28;20379;-66
2024/03/17 05:22:34;;;;;;;;;;;;;;;;;;5026548;28;19924;-66
2024/03/17 05:25:00;;;;;;;;;;;;;;;;;;5013688;28;19932;-66
2024/03/17 05:27:26;;;;;;;;;;;;;;;;;;5035247;28;19921;-66
2024/03/17 05:29:52;;;;;;;;;;;;;;;;;;5029758;28;20305;-66
2024/03/17 05:32:17;;;;;;;;;;;;;;;;;;5043859;28;19921;-66
2024/03/17 05:34:43;;;;;;;;;;;;;;;;;;5034665;28;19935;-65
2024/03/17 05:37:09;;;;;;;;;;;;;;;;;;5033333;28;20003;-65
2024/03/17 05:39:35;;;;;;;;;;;;;;;;;;5029583;28;20004;-66
2024/03/17 05:42:03;;;;;;;;;;;;;;;;;;5023601;28;20446;-65
2024/03/17 05:44:29;;;;;;;;;;;;;;;;;;5024614;28;20374;-65
2024/03/17 05:46:57;;;;;;;;;;;;;;;;;;5039890;28;19924;-66
2024/03/17 05:49:23;;;;;;;;;;;;;;;;;;5033232;28;20048;-65
2024/03/17 05:51:49;;;;;;;;;;;;;;;;;;5033304;28;20357;-65
2024/03/17 05:54:15;;;;;;;;;;;;;;;;;;5032778;28;19963;-65
2024/03/17 05:56:41;;;;;;;;;;;;;;;;;;5014244;28;20012;-66
2024/03/17 05:59:07;;;;;;;;;;;;;;;;;;5025582;28;19956;-66
2024/03/17 06:01:33;;;;;;;;;;;;;;;;;;5025416;28;20420;-66
2024/03/17 06:03:59;;;;;;;;;;;;;;;;;;5042956;28;19921;-66
2024/03/17 06:06:25;;;;;;;;;;;;;;;;;;5028836;28;19929;-66
2024/03/17 06:08:51;;;;;;;;;;;;;;;;;;5047831;28;19971;-65
2024/03/17 06:11:17;;;;;;;;;;;;;;;;;;5042191;28;19929;-65
2024/03/17 06:13:43;;;;;;;;;;;;;;;;;;5028722;28;19929;-65
2024/03/17 06:16:09;;;;;;;;;;;;;;;;;;5027145;28;19929;-65
2024/03/17 06:18:35;;;;;;;;;;;;;;;;;;5028460;28;20313;-65
2024/03/17 06:21:01;;;;;;;;;;;;;;;;;;5031238;28;19921;-65
2024/03/17 06:23:27;;;;;;;;;;;;;;;;;;5025358;28;19943;-65
2024/03/17 06:25:55;;;;;;;;;;;;;;;;;;5029472;28;20449;-65
2024/03/17 06:28:21;;;;;;;;;;;;;;;;;;5045695;28;19928;-65
2024/03/17 06:30:48;;;;;;;;;;;;;;;;;;5026461;28;19926;-65
2024/03/17 06:33:14;;;;;;;;;;;;;;;;;;5030661;28;20019;-65
2024/03/17 06:35:39;;;;;;;;;;;;;;;;;;5011308;28;20075;-65
2024/03/17 06:38:09;;;;;;;;;;;;;;;;;;5027872;28;20275;-65
2024/03/17 06:40:35;;;;;;;;;;;;;;;;;;5031453;28;19928;-65
2024/03/17 06:43:01;;;;;;;;;;;;;;;;;;5047308;28;19929;-65
2024/03/17 06:45:27;;;;;;;;;;;;;;;;;;5048878;28;20259;-64
2024/03/17 06:47:53;;;;;;;;;;;;;;;;;;5044382;28;19927;-64
2024/03/17 06:50:19;;;;;;;;;;;;;;;;;;5044226;28;19928;-64
2024/03/17 06:52:45;;;;;;;;;;;;;;;;;;5039000;28;19931;-64
2024/03/17 06:55:12;;;;;;;;;;;;;;;;;;5035977;28;19925;-64
2024/03/17 06:57:38;;;;;;;;;;;;;;;;;;5042759;28;19980;-65
2024/03/17 07:00:05;;;;;;;;;;;;;;;;;;5035462;28;19925;-65
2024/03/17 07:02:32;;;;;;;;;;;;;;;;;;5044193;28;20388;-66
2024/03/17 07:04:58;;;;;;;;;;;;;;;;;;5038005;28;19921;-65
2024/03/17 07:07:24;;;;;;;;;;;;;;;;;;5043458;28;20004;-66
2024/03/17 07:09:50;;;;;;;;;;;;;;;;;;5035759;28;20341;-66
2024/03/17 07:12:16;;;;;;;;;;;;;;;;;;5042219;28;19927;-66
2024/03/17 07:14:42;;;;;;;;;;;;;;;;;;5041915;28;20012;-66
2024/03/17 07:17:08;;;;;;;;;;;;;;;;;;5037535;28;19928;-65
2024/03/17 07:19:35;;;;;;;;;;;;;;;;;;5037757;28;19929;-65
2024/03/17 07:22:01;;;;;;;;;;;;;;;;;;5039433;28;19966;-65
2024/03/17 07:24:27;;;;;;;;;;;;;;;;;;5042214;28;19947;-65
2024/03/17 07:26:53;;;;;;;;;;;;;;;;;;5047010;28;20386;-65
2024/03/17 07:29:19;;;;;;;;;;;;;;;;;;5043012;28;19921;-65
2024/03/17 07:31:45;;;;;;;;;;;;;;;;;;5046854;28;19964;-66
2024/03/17 07:34:11;;;;;;;;;;;;;;;;;;5064070;28;19967;-65
2024/03/17 07:36:37;;;;;;;;;;;;;;;;;;5050469;28;20338;-65
2024/03/17 07:39:03;;;;;;;;;;;;;;;;;;5050061;28;19932;-65
2024/03/17 07:41:29;;;;;;;;;;;;;;;;;;5049165;28;20571;-65
2024/03/17 07:43:54;;;;;;;;;;;;;;;;;;5050349;28;19994;-65
2024/03/17 07:46:20;;;;;;;;;;;;;;;;;;5048813;28;20418;-65
2024/03/17 07:48:47;;;;;;;;;;;;;;;;;;5042721;28;20391;-65
2024/03/17 07:51:12;;;;;;;;;;;;;;;;;;5050814;28;19963;-66
2024/03/17 07:53:38;;;;;;;;;;;;;;;;;;5061675;28;19925;-66
2024/03/17 07:56:04;;;;;;;;;;;;;;;;;;5050311;28;19925;-66
2024/03/17 07:58:32;;;;;;;;;;;;;;;;;;5069087;28;20349;-66
2024/03/17 08:01:02;;;;;;;;;;;;;;;;;;5051291;28;20295;-66
2024/03/17 08:03:28;;;;;;;;;;;;;;;;;;5033997;28;20179;-66
2024/03/17 08:05:54;;;;;;;;;;;;;;;;;;5054320;28;19921;-66
2024/03/17 08:08:21;;;;;;;;;;;;;;;;;;5054290;28;19924;-65
2024/03/17 08:10:50;;;;;;;;;;;;;;;;;;5053452;28;19920;-65
2024/03/17 08:13:16;;;;;;;;;;;;;;;;;;5055712;28;19928;-65
2024/03/17 08:15:43;;;;;;;;;;;;;;;;;;5052790;28;20289;-65
2024/03/17 08:18:09;;;;;;;;;;;;;;;;;;5061281;28;19929;-65
2024/03/17 08:20:34;;;;;;;;;;;;;;;;;;5049362;28;19920;-66
2024/03/17 08:23:00;;;;;;;;;;;;;;;;;;5052980;28;19928;-66
2024/03/17 08:25:26;;;;;;;;;;;;;;;;;;5051728;28;19959;-66
2024/03/17 08:27:52;;;;;;;;;;;;;;;;;;5050097;28;19928;-65
2024/03/17 08:30:18;;;;;;;;;;;;;;;;;;5049825;28;19920;-65
2024/03/17 08:32:44;;;;;;;;;;;;;;;;;;5053846;28;19932;-65
2024/03/17 08:35:10;;;;;;;;;;;;;;;;;;5069888;28;19920;-65
2024/03/17 08:37:36;;;;;;;;;;;;;;;;;;5054191;28;20369;-65
2024/03/17 08:40:03;;;;;;;;;;;;;;;;;;5054388;28;19925;-65
2024/03/17 08:42:29;;;;;;;;;;;;;;;;;;5032076;28;19981;-65
2024/03/17 08:44:55;;;;;;;;;;;;;;;;;;5023160;28;19979;-65
2024/03/17 08:47:20;;;;;;;;;;;;;;;;;;5030123;28;19928;-66
2024/03/17 08:49:46;;;;;;;;;;;;;;;;;;5029770;28;19928;-66
2024/03/17 08:52:12;;;;;;;;;;;;;;;;;;5031590;28;20320;-66
2024/03/17 08:54:38;;;;;;;;;;;;;;;;;;5029312;28;20332;-65
2024/03/17 08:57:04;;;;;;;;;;;;;;;;;;5028882;28;19925;-65
2024/03/17 08:59:31;;;;;;;;;;;;;;;;;;5043716;28;19987;-66
2024/03/17 09:01:57;;;;;;;;;;;;;;;;;;5031585;28;20362;-65
2024/03/17 09:04:22;;;;;;;;;;;;;;;;;;5042598;28;19929;-65
2024/03/17 09:06:49;;;;;;;;;;;;;;;;;;5029494;28;19932;-65
2024/03/17 09:09:15;;;;;;;;;;;;;;;;;;5034559;28;19979;-65
2024/03/17 09:11:41;;;;;;;;;;;;;;;;;;5025373;28;19921;-66
2024/03/17 09:14:07;;;;;;;;;;;;;;;;;;5030553;28;19947;-66
2024/03/17 09:16:33;;;;;;;;;;;;;;;;;;5032067;28;20473;-66
2024/03/17 09:18:59;;;;;;;;;;;;;;;;;;5029449;28;19973;-66
2024/03/17 09:21:25;;;;;;;;;;;;;;;;;;5022442;28;19991;-66
2024/03/17 09:23:51;;;;;;;;;;;;;;;;;;5027201;28;20512;-66
2024/03/17 09:26:17;;;;;;;;;;;;;;;;;;5027092;28;19983;-65
2024/03/17 09:28:46;;;;;;;;;;;;;;;;;;5029356;28;19934;-65
2024/03/17 09:31:12;;;;;;;;;;;;;;;;;;5027154;28;20584;-65
2024/03/17 09:33:38;;;;;;;;;;;;;;;;;;5029748;28;19929;-65
2024/03/17 09:36:05;;;;;;;;;;;;;;;;;;5032965;28;19921;-65
2024/03/17 09:38:31;;;;;;;;;;;;;;;;;;5037414;28;19971;-65
2024/03/17 09:40:57;;;;;;;;;;;;;;;;;;5037077;28;19968;-65
2024/03/17 09:43:24;;;;;;;;;;;;;;;;;;5030979;28;19955;-65
2024/03/17 09:45:54;;;;;;;;;;;;;;;;;;5048845;28;19936;-65
2024/03/17 09:48:19;;;;;;;;;;;;;;;;;;5047293;28;19927;-65
2024/03/17 09:50:45;;;;;;;;;;;;;;;;;;5050089;28;19928;-65
2024/03/17 09:53:11;;;;;;;;;;;;;;;;;;5036923;28;19929;-65
2024/03/17 09:55:37;;;;;;;;;;;;;;;;;;5067047;22;19931;-64
2024/03/17 09:58:03;;;;;;;;;;;;;;;;;;5030829;28;19978;-63
2024/03/17 10:00:29;;;;;;;;;;;;;;;;;;5052238;28;19924;-64
2024/03/17 10:02:55;;;;;;;;;;;;;;;;;;5039290;28;19928;-64
2024/03/17 10:05:21;;;;;;;;;;;;;;;;;;5049934;28;20370;-64
2024/03/17 10:07:48;;;;;;;;;;;;;;;;;;5070247;28;19921;-64
2024/03/17 10:10:16;;;;;;;;;;;;;;;;;;5054312;28;19928;-64
2024/03/17 10:12:42;;;;;;;;;;;;;;;;;;5055595;28;20025;-64
2024/03/17 10:15:08;;;;;;;;;;;;;;;;;;5052952;28;19979;-64
2024/03/17 10:17:35;;;;;;;;;;;;;;;;;;5029382;28;20007;-63
2024/03/17 10:20:01;;;;;;;;;;;;;;;;;;5048693;28;20069;-63
2024/03/17 10:22:27;;;;;;;;;;;;;;;;;;5052306;28;20015;-63
2024/03/17 10:24:52;;;;;;;;;;;;;;;;;;5066961;28;20626;-63
2024/03/17 10:27:18;;;;;;;;;;;;;;;;;;5069301;28;20027;-63
2024/03/17 10:29:46;;;;;;;;;;;;;;;;;;5071068;28;20066;-63
2024/03/17 10:32:13;;;;;;;;;;;;;;;;;;5068842;28;19932;-63
2024/03/17 10:34:39;;;;;;;;;;;;;;;;;;5054108;28;19973;-63
2024/03/17 10:37:04;;;;;;;;;;;;;;;;;;5070562;28;19924;-63
2024/03/17 10:39:31;;;;;;;;;;;;;;;;;;5054975;28;19924;-64
2024/03/17 10:41:57;;;;;;;;;;;;;;;;;;5063043;28;19927;-65
2024/03/17 10:44:23;;;;;;;;;;;;;;;;;;5048212;28;20015;-64
2024/03/17 10:46:49;;;;;;;;;;;;;;;;;;5071042;28;20314;-64
2024/03/17 10:49:15;;;;;;;;;;;;;;;;;;5037494;28;20026;-64
2024/03/17 10:51:41;;;;;;;;;;;;;;;;;;5052608;28;20019;-64
2024/03/17 10:54:07;;;;;;;;;;;;;;;;;;5048386;28;20656;-64
2024/03/17 10:56:34;;;;;;;;;;;;;;;;;;5049343;28;19994;-64
2024/03/17 10:59:00;;;;;;;;;;;;;;;;;;5035609;28;20542;-64
2024/03/17 11:01:26;;;;;;;;;;;;;;;;;;5065752;28;19925;-63
2024/03/17 11:03:52;;;;;;;;;;;;;;;;;;5041992;28;19993;-64
2024/03/17 11:06:21;;;;;;;;;;;;;;;;;;5071571;28;20281;-63
2024/03/17 11:08:47;;;;;;;;;;;;;;;;;;5071554;28;19999;-64
2024/03/17 11:11:14;;;;;;;;;;;;;;;;;;5067618;28;19920;-63
2024/03/17 11:13:40;;;;;;;;;;;;;;;;;;5046382;28;20404;-63
2024/03/17 11:16:06;;;;;;;;;;;;;;;;;;5051176;28;19920;-64
2024/03/17 11:18:32;;;;;;;;;;;;;;;;;;5053657;28;19931;-64
2024/03/17 11:20:58;;;;;;;;;;;;;;;;;;5068879;28;19927;-63
2024/03/17 11:23:24;;;;;;;;;;;;;;;;;;5035194;28;20322;-64
2024/03/17 11:25:49;;;;;;;;;;;;;;;;;;5042563;28;20035;-63
2024/03/17 11:28:15;;;;;;;;;;;;;;;;;;5054197;28;19995;-63
2024/03/17 11:30:43;;;;;;;;;;;;;;;;;;5051737;28;19927;-63
2024/03/17 11:33:09;;;;;;;;;;;;;;;;;;5050355;28;19924;-63
2024/03/17 11:35:35;;;;;;;;;;;;;;;;;;5056330;28;19920;-63
2024/03/17 11:38:01;;;;;;;;;;;;;;;;;;5050504;28;19929;-63
2024/03/17 11:40:27;;;;;;;;;;;;;;;;;;5051702;28;19927;-64
2024/03/17 11:42:53;;;;;;;;;;;;;;;;;;5058933;28;19924;-64
2024/03/17 11:45:21;;;;;;;;;;;;;;;;;;5048958;28;20656;-64
2024/03/17 11:47:48;;;;;;;;;;;;;;;;;;5067727;28;19927;-63
2024/03/17 11:50:14;;;;;;;;;;;;;;;;;;5066730;28;19920;-64
2024/03/17 11:52:43;;;;;;;;;;;;;;;;;;5049740;28;19932;-63
2024/03/17 11:55:09;;;;;;;;;;;;;;;;;;5067741;28;20399;-64
2024/03/17 11:57:35;;;;;;;;;;;;;;;;;;5047541;28;20009;-63
2024/03/17 12:00:02;;;;;;;;;;;;;;;;;;5049239;28;20018;-63
2024/03/17 12:02:28;;;;;;;;;;;;;;;;;;5033242;28;19924;-63
2024/03/17 12:04:54;;;;;;;;;;;;;;;;;;5048805;28;20389;-63
2024/03/17 12:07:24;;;;;;;;;;;;;;;;;;5044260;28;19946;-63
2024/03/17 12:09:49;;;;;;;;;;;;;;;;;;5071109;28;19963;-63
2024/03/17 12:12:15;;;;;;;;;;;;;;;;;;5023271;28;19968;-63
2024/03/17 12:14:41;;;;;;;;;;;;;;;;;;5055800;28;19931;-63
2024/03/17 12:17:07;;;;;;;;;;;;;;;;;;5067794;28;20004;-63
2024/03/17 12:19:33;;;;;;;;;;;;;;;;;;5059185;28;20301;-63
2024/03/17 12:22:02;;;;;;;;;;;;;;;;;;5070316;28;19921;-63
2024/03/17 12:24:28;;;;;;;;;;;;;;;;;;5068066;28;20293;-63
2024/03/17 12:26:55;;;;;;;;;;;;;;;;;;5038320;28;19931;-63
2024/03/17 12:29:21;;;;;;;;;;;;;;;;;;5051062;28;19924;-63
2024/03/17 12:31:47;;;;;;;;;;;;;;;;;;5047571;28;19997;-63
2024/03/17 12:34:14;;;;;;;;;;;;;;;;;;5045857;28;20403;-64
2024/03/17 12:36:40;;;;;;;;;;;;;;;;;;5045366;28;19927;-64
2024/03/17 12:39:06;;;;;;;;;;;;;;;;;;5037063;28;19920;-64
2024/03/17 12:41:33;;;;;;;;;;;;;;;;;;5058593;28;19929;-64
2024/03/17 12:43:59;;;;;;;;;;;;;;;;;;5065687;28;19920;-64
2024/03/17 12:46:25;;;;;;;;;;;;;;;;;;5073204;28;19920;-64
2024/03/17 12:48:51;;;;;;;;;;;;;;;;;;5063233;28;19935;-64
2024/03/17 12:51:18;;;;;;;;;;;;;;;;;;5073172;28;19927;-64
2024/03/17 12:53:43;;;;;;;;;;;;;;;;;;5054825;28;19964;-64
2024/03/17 13:01:39;;;;;;;;;;;;;;;;;;5054883;28;20390;-64
2024/03/17 13:04:06;;;;;;;;;;;;;;;;;;5035251;28;20007;-64
2024/03/17 13:06:33;;;;;;;;;;;;;;;;;;5053752;28;19928;-64
2024/03/17 13:08:59;;;;;;;;;;;;;;;;;;5073492;28;19935;-64
2024/03/17 13:11:28;;;;;;;;;;;;;;;;;;5054479;28;20409;-64
2024/03/17 13:13:54;;;;;;;;;;;;;;;;;;5051386;28;19925;-64
2024/03/17 13:16:20;;;;;;;;;;;;;;;;;;5052396;28;19920;-64
2024/03/17 13:18:46;;;;;;;;;;;;;;;;;;5069012;28;19924;-63
2024/03/17 13:21:12;;;;;;;;;;;;;;;;;;5035389;28;19924;-63
2024/03/17 13:23:38;;;;;;;;;;;;;;;;;;5072043;28;20607;-63
2024/03/17 13:26:04;;;;;;;;;;;;;;;;;;5071750;28;19920;-64
2024/03/17 13:28:31;;;;;;;;;;;;;;;;;;5033301;28;19925;-63
2024/03/17 13:30:57;;;;;;;;;;;;;;;;;;5070387;28;20458;-64
2024/03/17 13:33:23;;;;;;;;;;;;;;;;;;5034886;28;19935;-64
2024/03/17 13:35:49;;;;;;;;;;;;;;;;;;5066986;28;19920;-64
2024/03/17 13:38:15;;;;;;;;;;;;;;;;;;5070464;28;19925;-64
2024/03/17 13:40:42;;;;;;;;;;;;;;;;;;5041753;28;20015;-64
2024/03/17 13:43:08;;;;;;;;;;;;;;;;;;5072804;28;19921;-63
2024/03/17 13:45:34;;;;;;;;;;;;;;;;;;5061956;28;19928;-64
2024/03/17 13:48:00;;;;;;;;;;;;;;;;;;5062183;28;19924;-64
2024/03/17 13:50:26;;;;;;;;;;;;;;;;;;5052015;28;20321;-64
2024/03/17 13:52:52;;;;;;;;;;;;;;;;;;5051975;28;19928;-63
2024/03/17 13:55:18;;;;;;;;;;;;;;;;;;5057232;28;19920;-64
2024/03/17 13:57:44;;;;;;;;;;;;;;;;;;5053523;28;19932;-63
2024/03/17 14:00:10;;;;;;;;;;;;;;;;;;5045382;28;19920;-64
2024/03/17 14:02:36;;;;;;;;;;;;;;;;;;5062842;28;19927;-64
2024/03/17 14:05:03;;;;;;;;;;;;;;;;;;5072568;28;20719;-64
2024/03/17 14:07:31;;;;;;;;;;;;;;;;;;5067519;28;19921;-64
2024/03/17 14:09:57;;;;;;;;;;;;;;;;;;5036901;28;19928;-64
2024/03/17 14:12:26;;;;;;;;;;;;;;;;;;5056040;28;19925;-64
2024/03/17 14:14:52;;;;;;;;;;;;;;;;;;5057732;28;19935;-64
2024/03/17 14:17:18;;;;;;;;;;;;;;;;;;5069817;28;20274;-64
2024/03/17 14:19:44;;;;;;;;;;;;;;;;;;5052823;28;19927;-64
2024/03/17 14:22:10;;;;;;;;;;;;;;;;;;5032846;28;19925;-64
2024/03/17 14:24:37;;;;;;;;;;;;;;;;;;5062960;28;19920;-64
2024/03/17 14:27:03;;;;;;;;;;;;;;;;;;5045062;28;19932;-64
2024/03/17 14:29:30;;;;;;;;;;;;;;;;;;5063091;28;19927;-64
2024/03/17 14:31:56;;;;;;;;;;;;;;;;;;5054687;28;19927;-64
2024/03/17 14:34:22;;;;;;;;;;;;;;;;;;5052079;28;20589;-64
2024/03/17 14:36:48;;;;;;;;;;;;;;;;;;5052022;28;19920;-63
2024/03/17 14:39:14;;;;;;;;;;;;;;;;;;5069957;28;19931;-64
2024/03/17 14:41:40;;;;;;;;;;;;;;;;;;5074011;28;19920;-64
2024/03/17 14:44:06;;;;;;;;;;;;;;;;;;5056208;28;20258;-64
2024/03/17 14:46:32;;;;;;;;;;;;;;;;;;5056874;28;19924;-64
2024/03/17 14:48:58;;;;;;;;;;;;;;;;;;5068503;28;19921;-64
2024/03/17 14:51:24;;;;;;;;;;;;;;;;;;5063354;28;19924;-64
2024/03/17 14:53:53;;;;;;;;;;;;;;;;;;5067983;28;19931;-64
2024/03/17 14:56:19;;;;;;;;;;;;;;;;;;5070777;28;20286;-64
2024/03/17 14:58:49;;;;;;;;;;;;;;;;;;5053094;28;19920;-64
2024/03/17 15:01:15;;;;;;;;;;;;;;;;;;5066914;28;19928;-64
2024/03/17 15:03:43;;;;;;;;;;;;;;;;;;5069805;28;19924;-64
2024/03/17 15:06:09;;;;;;;;;;;;;;;;;;5049995;28;19927;-64
2024/03/17 15:08:35;;;;;;;;;;;;;;;;;;5071252;28;19920;-64
2024/03/17 15:11:00;;;;;;;;;;;;;;;;;;5054002;28;19924;-64
2024/03/17 15:13:27;;;;;;;;;;;;;;;;;;5069850;28;19931;-65
2024/03/17 15:15:54;;;;;;;;;;;;;;;;;;5063947;28;19927;-64
2024/03/17 15:18:20;;;;;;;;;;;;;;;;;;5041029;28;19928;-64
2024/03/17 15:20:46;;;;;;;;;;;;;;;;;;5060047;28;20285;-64
2024/03/17 15:23:12;;;;;;;;;;;;;;;;;;5069563;28;19925;-64
2024/03/17 15:25:38;;;;;;;;;;;;;;;;;;5067283;28;19931;-64
2024/03/17 15:28:05;;;;;;;;;;;;;;;;;;5066075;28;19921;-64
2024/03/17 15:30:31;;;;;;;;;;;;;;;;;;5028092;28;20027;-64
2024/03/17 15:32:57;;;;;;;;;;;;;;;;;;5063709;28;19967;-63
2024/03/17 15:35:24;;;;;;;;;;;;;;;;;;5070047;28;19930;-64
2024/03/17 15:37:50;;;;;;;;;;;;;;;;;;5070067;28;19924;-64
2024/03/17 15:40:19;;;;;;;;;;;;;;;;;;5066784;28;19920;-64
2024/03/17 15:42:45;;;;;;;;;;;;;;;;;;5067994;28;19920;-64
2024/03/17 15:45:11;;;;;;;;;;;;;;;;;;5054735;28;19928;-64
2024/03/17 15:47:37;;;;;;;;;;;;;;;;;;5046557;28;19967;-64
2024/03/17 15:50:03;;;;;;;;;;;;;;;;;;5064288;28;19920;-63
2024/03/17 15:52:29;;;;;;;;;;;;;;;;;;5066033;28;19933;-64
2024/03/17 15:54:55;;;;;;;;;;;;;;;;;;5051182;28;19974;-64
2024/03/17 15:57:22;;;;;;;;;;;;;;;;;;5048023;28;20504;-64
2024/03/17 15:59:48;;;;;;;;;;;;;;;;;;5051575;28;19925;-64
2024/03/17 16:02:14;;;;;;;;;;;;;;;;;;5050230;28;19920;-64
2024/03/17 16:04:40;;;;;;;;;;;;;;;;;;5048226;28;19920;-64
2024/03/17 16:07:06;;;;;;;;;;;;;;;;;;5047749;28;20022;-64
2024/03/17 16:09:32;;;;;;;;;;;;;;;;;;5052232;28;20420;-63
2024/03/17 16:11:57;;;;;;;;;;;;;;;;;;5067800;28;19921;-63
2024/03/17 16:14:23;;;;;;;;;;;;;;;;;;5065983;28;19921;-63
2024/03/17 16:16:50;;;;;;;;;;;;;;;;;;5048182;28;19924;-63
2024/03/17 16:19:16;;;;;;;;;;;;;;;;;;5074169;28;19959;-64
2024/03/17 16:21:42;;;;;;;;;;;;;;;;;;5070861;28;20369;-64
2024/03/17 16:24:08;;;;;;;;;;;;;;;;;;5075025;28;19985;-64
2024/03/17 16:26:36;;;;;;;;;;;;;;;;;;5072136;28;20385;-64
2024/03/17 16:29:02;;;;;;;;;;;;;;;;;;5053471;28;19932;-64
2024/03/17 16:31:28;;;;;;;;;;;;;;;;;;5065824;28;19920;-64
2024/03/17 16:33:56;;;;;;;;;;;;;;;;;;5039161;28;19931;-64
2024/03/17 16:36:22;;;;;;;;;;;;;;;;;;5071017;28;19971;-64
2024/03/17 16:38:48;;;;;;;;;;;;;;;;;;5056223;28;19963;-64
2024/03/17 16:41:16;;;;;;;;;;;;;;;;;;5048323;28;20270;-64
2024/03/17 16:43:42;;;;;;;;;;;;;;;;;;5052560;28;20006;-67
2024/03/17 16:46:09;;;;;;;;;;;;;;;;;;5049084;28;20422;-64